sensor_id;sensor_type;location;lat;lon;timestamp;P1;durP1;ratioP1;P2;durP2;ratioP2
56435;SDS011;42335;44.872;20.658;2024-02-14T00:00:05;52.13;;;34.20;;
56435;SDS011;42335;44.872;20.658;2024-02-14T00:02:39;267.15;;;164.98;;
56435;SDS011;42335;44.872;20.658;2024-02-14T00:05:06;378.15;;;223.98;;
56435;SDS011;42335;44.872;20.658;2024-02-14T00:07:32;395.25;;;234.60;;
56435;SDS011;42335;44.872;20.658;2024-02-14T00:09:58;268.13;;;150.50;;
56435;SDS011;42335;44.872;20.658;2024-02-14T00:12:24;57.22;;;33.22;;
56435;SDS011;42335;44.872;20.658;2024-02-14T00:14:50;160.98;;;93.55;;
56435;SDS011;42335;44.872;20.658;2024-02-14T00:17:16;59.65;;;40.83;;
56435;SDS011;42335;44.872;20.658;2024-02-14T00:19:41;13.23;;;10.18;;
56435;SDS011;42335;44.872;20.658;2024-02-14T00:22:07;12.88;;;9.45;;
56435;SDS011;42335;44.872;20.658;2024-02-14T00:24:33;12.75;;;9.25;;
56435;SDS011;42335;44.872;20.658;2024-02-14T00:27:00;10.48;;;8.48;;
56435;SDS011;42335;44.872;20.658;2024-02-14T00:29:28;14.27;;;8.80;;
56435;SDS011;42335;44.872;20.658;2024-02-14T00:31:54;13.38;;;8.45;;
56435;SDS011;42335;44.872;20.658;2024-02-14T00:34:19;12.05;;;8.45;;
56435;SDS011;42335;44.872;20.658;2024-02-14T00:36:46;11.70;;;7.72;;
56435;SDS011;42335;44.872;20.658;2024-02-14T00:39:12;15.35;;;7.68;;
56435;SDS011;42335;44.872;20.658;2024-02-14T00:41:37;10.75;;;8.55;;
56435;SDS011;42335;44.872;20.658;2024-02-14T00:44:03;15.95;;;8.32;;
56435;SDS011;42335;44.872;20.658;2024-02-14T00:46:29;15.05;;;8.65;;
56435;SDS011;42335;44.872;20.658;2024-02-14T00:48:55;12.63;;;8.85;;
56435;SDS011;42335;44.872;20.658;2024-02-14T00:51:21;14.30;;;9.32;;
56435;SDS011;42335;44.872;20.658;2024-02-14T00:53:47;12.20;;;9.18;;
56435;SDS011;42335;44.872;20.658;2024-02-14T00:56:13;13.93;;;10.93;;
56435;SDS011;42335;44.872;20.658;2024-02-14T00:58:39;17.13;;;11.73;;
56435;SDS011;42335;44.872;20.658;2024-02-14T01:01:04;21.88;;;11.95;;
56435;SDS011;42335;44.872;20.658;2024-02-14T01:03:31;16.73;;;11.77;;
56435;SDS011;42335;44.872;20.658;2024-02-14T01:05:57;17.35;;;13.02;;
56435;SDS011;42335;44.872;20.658;2024-02-14T01:08:22;18.60;;;12.18;;
56435;SDS011;42335;44.872;20.658;2024-02-14T01:10:48;16.77;;;12.63;;
56435;SDS011;42335;44.872;20.658;2024-02-14T01:13:16;16.83;;;11.60;;
56435;SDS011;42335;44.872;20.658;2024-02-14T01:15:43;17.45;;;11.00;;
56435;SDS011;42335;44.872;20.658;2024-02-14T01:18:08;14.25;;;10.65;;
56435;SDS011;42335;44.872;20.658;2024-02-14T01:20:35;14.82;;;10.38;;
56435;SDS011;42335;44.872;20.658;2024-02-14T01:23:02;13.32;;;10.65;;
56435;SDS011;42335;44.872;20.658;2024-02-14T01:25:28;14.82;;;10.20;;
56435;SDS011;42335;44.872;20.658;2024-02-14T01:27:54;16.58;;;11.15;;
56435;SDS011;42335;44.872;20.658;2024-02-14T01:30:20;25.85;;;15.85;;
56435;SDS011;42335;44.872;20.658;2024-02-14T01:32:45;24.10;;;14.90;;
56435;SDS011;42335;44.872;20.658;2024-02-14T01:35:11;20.83;;;12.77;;
56435;SDS011;42335;44.872;20.658;2024-02-14T01:37:38;18.95;;;11.90;;
56435;SDS011;42335;44.872;20.658;2024-02-14T01:40:04;16.88;;;11.75;;
56435;SDS011;42335;44.872;20.658;2024-02-14T01:42:32;17.98;;;12.35;;
56435;SDS011;42335;44.872;20.658;2024-02-14T01:44:58;17.80;;;12.70;;
56435;SDS011;42335;44.872;20.658;2024-02-14T01:47:24;18.95;;;12.68;;
56435;SDS011;42335;44.872;20.658;2024-02-14T01:49:49;22.50;;;14.10;;
56435;SDS011;42335;44.872;20.658;2024-02-14T01:52:15;17.83;;;12.27;;
56435;SDS011;42335;44.872;20.658;2024-02-14T01:54:41;20.85;;;14.27;;
56435;SDS011;42335;44.872;20.658;2024-02-14T01:57:08;20.92;;;14.00;;
56435;SDS011;42335;44.872;20.658;2024-02-14T01:59:36;19.77;;;12.80;;
56435;SDS011;42335;44.872;20.658;2024-02-14T02:02:03;20.00;;;13.80;;
56435;SDS011;42335;44.872;20.658;2024-02-14T02:04:32;17.15;;;13.80;;
56435;SDS011;42335;44.872;20.658;2024-02-14T02:06:58;18.90;;;13.30;;
56435;SDS011;42335;44.872;20.658;2024-02-14T02:09:24;16.85;;;13.25;;
56435;SDS011;42335;44.872;20.658;2024-02-14T02:11:50;18.63;;;12.43;;
56435;SDS011;42335;44.872;20.658;2024-02-14T02:14:19;20.17;;;13.50;;
56435;SDS011;42335;44.872;20.658;2024-02-14T02:16:46;17.40;;;14.32;;
56435;SDS011;42335;44.872;20.658;2024-02-14T02:19:12;19.63;;;13.30;;
56435;SDS011;42335;44.872;20.658;2024-02-14T02:21:38;17.00;;;12.63;;
56435;SDS011;42335;44.872;20.658;2024-02-14T02:24:04;21.80;;;13.43;;
56435;SDS011;42335;44.872;20.658;2024-02-14T02:26:30;20.85;;;13.10;;
56435;SDS011;42335;44.872;20.658;2024-02-14T02:28:56;18.60;;;12.75;;
56435;SDS011;42335;44.872;20.658;2024-02-14T02:31:22;20.13;;;13.43;;
56435;SDS011;42335;44.872;20.658;2024-02-14T02:33:48;17.80;;;10.90;;
56435;SDS011;42335;44.872;20.658;2024-02-14T02:36:14;18.13;;;10.27;;
56435;SDS011;42335;44.872;20.658;2024-02-14T02:38:41;15.05;;;8.85;;
56435;SDS011;42335;44.872;20.658;2024-02-14T02:41:07;10.90;;;8.43;;
56435;SDS011;42335;44.872;20.658;2024-02-14T02:43:33;10.40;;;7.85;;
56435;SDS011;42335;44.872;20.658;2024-02-14T02:45:59;10.90;;;8.13;;
56435;SDS011;42335;44.872;20.658;2024-02-14T02:48:25;11.18;;;8.30;;
56435;SDS011;42335;44.872;20.658;2024-02-14T02:50:51;15.27;;;7.90;;
56435;SDS011;42335;44.872;20.658;2024-02-14T02:53:18;10.77;;;7.80;;
56435;SDS011;42335;44.872;20.658;2024-02-14T02:55:44;14.30;;;7.85;;
56435;SDS011;42335;44.872;20.658;2024-02-14T02:58:10;11.68;;;8.27;;
56435;SDS011;42335;44.872;20.658;2024-02-14T03:00:36;13.20;;;8.07;;
56435;SDS011;42335;44.872;20.658;2024-02-14T03:03:02;10.48;;;7.32;;
56435;SDS011;42335;44.872;20.658;2024-02-14T03:05:30;14.68;;;9.32;;
56435;SDS011;42335;44.872;20.658;2024-02-14T03:07:58;10.77;;;8.02;;
56435;SDS011;42335;44.872;20.658;2024-02-14T03:10:25;12.68;;;8.13;;
56435;SDS011;42335;44.872;20.658;2024-02-14T03:12:51;12.60;;;8.43;;
56435;SDS011;42335;44.872;20.658;2024-02-14T03:15:17;11.85;;;8.40;;
56435;SDS011;42335;44.872;20.658;2024-02-14T03:17:44;15.80;;;8.95;;
56435;SDS011;42335;44.872;20.658;2024-02-14T03:20:11;12.23;;;8.20;;
56435;SDS011;42335;44.872;20.658;2024-02-14T03:22:43;13.43;;;9.55;;
56435;SDS011;42335;44.872;20.658;2024-02-14T03:25:19;11.55;;;8.93;;
56435;SDS011;42335;44.872;20.658;2024-02-14T03:27:45;10.82;;;8.90;;
56435;SDS011;42335;44.872;20.658;2024-02-14T03:30:14;11.48;;;8.75;;
56435;SDS011;42335;44.872;20.658;2024-02-14T03:32:41;12.48;;;9.52;;
56435;SDS011;42335;44.872;20.658;2024-02-14T03:35:07;14.02;;;8.63;;
56435;SDS011;42335;44.872;20.658;2024-02-14T03:37:35;19.05;;;9.75;;
56435;SDS011;42335;44.872;20.658;2024-02-14T03:40:02;11.25;;;8.23;;
56435;SDS011;42335;44.872;20.658;2024-02-14T03:42:30;13.18;;;8.70;;
56435;SDS011;42335;44.872;20.658;2024-02-14T03:44:56;15.52;;;9.05;;
56435;SDS011;42335;44.872;20.658;2024-02-14T03:47:28;12.23;;;8.57;;
56435;SDS011;42335;44.872;20.658;2024-02-14T03:49:57;17.70;;;8.23;;
56435;SDS011;42335;44.872;20.658;2024-02-14T03:52:24;12.70;;;8.70;;
56435;SDS011;42335;44.872;20.658;2024-02-14T03:54:49;14.75;;;8.40;;
56435;SDS011;42335;44.872;20.658;2024-02-14T03:57:16;11.18;;;8.48;;
56435;SDS011;42335;44.872;20.658;2024-02-14T03:59:46;14.32;;;8.80;;
56435;SDS011;42335;44.872;20.658;2024-02-14T04:02:11;11.90;;;7.65;;
56435;SDS011;42335;44.872;20.658;2024-02-14T04:04:39;13.05;;;9.07;;
56435;SDS011;42335;44.872;20.658;2024-02-14T04:07:07;22.27;;;15.55;;
56435;SDS011;42335;44.872;20.658;2024-02-14T04:09:34;18.90;;;11.20;;
56435;SDS011;42335;44.872;20.658;2024-02-14T04:11:59;54.08;;;34.00;;
56435;SDS011;42335;44.872;20.658;2024-02-14T04:14:26;38.45;;;24.08;;
56435;SDS011;42335;44.872;20.658;2024-02-14T04:16:51;44.95;;;25.17;;
56435;SDS011;42335;44.872;20.658;2024-02-14T04:19:17;87.13;;;45.13;;
56435;SDS011;42335;44.872;20.658;2024-02-14T04:21:43;26.95;;;15.45;;
56435;SDS011;42335;44.872;20.658;2024-02-14T04:24:09;89.88;;;49.05;;
56435;SDS011;42335;44.872;20.658;2024-02-14T04:26:35;29.05;;;18.55;;
56435;SDS011;42335;44.872;20.658;2024-02-14T04:29:01;34.10;;;29.15;;
56435;SDS011;42335;44.872;20.658;2024-02-14T04:31:27;14.48;;;9.07;;
56435;SDS011;42335;44.872;20.658;2024-02-14T04:33:55;12.80;;;8.00;;
56435;SDS011;42335;44.872;20.658;2024-02-14T04:36:21;13.48;;;7.97;;
56435;SDS011;42335;44.872;20.658;2024-02-14T04:38:49;10.98;;;7.47;;
56435;SDS011;42335;44.872;20.658;2024-02-14T04:41:16;12.43;;;7.63;;
56435;SDS011;42335;44.872;20.658;2024-02-14T04:43:42;9.77;;;7.30;;
56435;SDS011;42335;44.872;20.658;2024-02-14T04:46:08;11.00;;;7.60;;
56435;SDS011;42335;44.872;20.658;2024-02-14T04:48:34;10.73;;;7.10;;
56435;SDS011;42335;44.872;20.658;2024-02-14T04:51:04;12.57;;;7.78;;
56435;SDS011;42335;44.872;20.658;2024-02-14T04:53:30;11.85;;;7.00;;
56435;SDS011;42335;44.872;20.658;2024-02-14T04:55:56;10.43;;;7.35;;
56435;SDS011;42335;44.872;20.658;2024-02-14T04:58:22;12.10;;;7.93;;
56435;SDS011;42335;44.872;20.658;2024-02-14T05:00:48;12.48;;;8.10;;
56435;SDS011;42335;44.872;20.658;2024-02-14T05:03:14;13.10;;;8.00;;
56435;SDS011;42335;44.872;20.658;2024-02-14T05:05:40;11.30;;;6.72;;
56435;SDS011;42335;44.872;20.658;2024-02-14T05:08:06;9.30;;;7.10;;
56435;SDS011;42335;44.872;20.658;2024-02-14T05:10:32;57.88;;;33.78;;
56435;SDS011;42335;44.872;20.658;2024-02-14T05:12:58;88.95;;;58.53;;
56435;SDS011;42335;44.872;20.658;2024-02-14T05:15:24;67.22;;;40.83;;
56435;SDS011;42335;44.872;20.658;2024-02-14T05:17:49;14.20;;;7.75;;
56435;SDS011;42335;44.872;20.658;2024-02-14T05:20:16;11.98;;;7.55;;
56435;SDS011;42335;44.872;20.658;2024-02-14T05:22:42;13.45;;;7.50;;
56435;SDS011;42335;44.872;20.658;2024-02-14T05:25:07;14.13;;;6.95;;
56435;SDS011;42335;44.872;20.658;2024-02-14T05:27:36;15.07;;;7.30;;
56435;SDS011;42335;44.872;20.658;2024-02-14T05:30:03;15.48;;;7.65;;
56435;SDS011;42335;44.872;20.658;2024-02-14T05:32:34;19.15;;;7.75;;
56435;SDS011;42335;44.872;20.658;2024-02-14T05:35:00;11.43;;;8.13;;
56435;SDS011;42335;44.872;20.658;2024-02-14T05:37:26;15.13;;;7.85;;
56435;SDS011;42335;44.872;20.658;2024-02-14T05:39:54;11.15;;;7.32;;
56435;SDS011;42335;44.872;20.658;2024-02-14T05:42:20;21.60;;;7.47;;
56435;SDS011;42335;44.872;20.658;2024-02-14T05:44:47;12.48;;;7.25;;
56435;SDS011;42335;44.872;20.658;2024-02-14T05:47:13;12.02;;;7.32;;
56435;SDS011;42335;44.872;20.658;2024-02-14T05:49:39;17.17;;;8.60;;
56435;SDS011;42335;44.872;20.658;2024-02-14T05:52:06;15.27;;;8.70;;
56435;SDS011;42335;44.872;20.658;2024-02-14T05:54:33;16.83;;;9.38;;
56435;SDS011;42335;44.872;20.658;2024-02-14T05:56:59;14.27;;;8.15;;
56435;SDS011;42335;44.872;20.658;2024-02-14T05:59:24;21.27;;;8.50;;
56435;SDS011;42335;44.872;20.658;2024-02-14T06:01:50;14.73;;;8.65;;
56435;SDS011;42335;44.872;20.658;2024-02-14T06:04:16;12.18;;;7.95;;
56435;SDS011;42335;44.872;20.658;2024-02-14T06:06:43;13.98;;;8.88;;
56435;SDS011;42335;44.872;20.658;2024-02-14T06:09:12;18.98;;;9.00;;
56435;SDS011;42335;44.872;20.658;2024-02-14T06:11:39;14.20;;;7.30;;
56435;SDS011;42335;44.872;20.658;2024-02-14T06:14:05;54.17;;;30.00;;
56435;SDS011;42335;44.872;20.658;2024-02-14T06:16:32;19.45;;;9.50;;
56435;SDS011;42335;44.872;20.658;2024-02-14T06:18:58;14.05;;;7.50;;
56435;SDS011;42335;44.872;20.658;2024-02-14T06:21:24;17.25;;;8.77;;
56435;SDS011;42335;44.872;20.658;2024-02-14T06:23:50;19.63;;;8.20;;
56435;SDS011;42335;44.872;20.658;2024-02-14T06:26:16;14.32;;;8.05;;
56435;SDS011;42335;44.872;20.658;2024-02-14T06:28:43;11.02;;;7.45;;
56435;SDS011;42335;44.872;20.658;2024-02-14T06:31:09;21.27;;;7.82;;
56435;SDS011;42335;44.872;20.658;2024-02-14T06:33:39;96.25;;;58.45;;
56435;SDS011;42335;44.872;20.658;2024-02-14T06:36:05;23.58;;;10.68;;
56435;SDS011;42335;44.872;20.658;2024-02-14T06:38:31;23.10;;;10.07;;
56435;SDS011;42335;44.872;20.658;2024-02-14T06:40:56;30.58;;;14.65;;
56435;SDS011;42335;44.872;20.658;2024-02-14T06:43:22;46.08;;;24.30;;
56435;SDS011;42335;44.872;20.658;2024-02-14T06:45:48;24.42;;;11.63;;
56435;SDS011;42335;44.872;20.658;2024-02-14T06:48:14;13.85;;;8.02;;
56435;SDS011;42335;44.872;20.658;2024-02-14T06:50:39;15.43;;;8.13;;
56435;SDS011;42335;44.872;20.658;2024-02-14T06:53:06;12.48;;;7.95;;
56435;SDS011;42335;44.872;20.658;2024-02-14T06:55:31;11.25;;;6.82;;
56435;SDS011;42335;44.872;20.658;2024-02-14T06:58:00;10.73;;;7.05;;
56435;SDS011;42335;44.872;20.658;2024-02-14T07:00:26;17.88;;;7.05;;
56435;SDS011;42335;44.872;20.658;2024-02-14T07:02:53;19.30;;;7.20;;
56435;SDS011;42335;44.872;20.658;2024-02-14T07:05:19;17.15;;;6.95;;
56435;SDS011;42335;44.872;20.658;2024-02-14T07:07:45;11.38;;;7.38;;
56435;SDS011;42335;44.872;20.658;2024-02-14T07:10:10;11.88;;;7.10;;
56435;SDS011;42335;44.872;20.658;2024-02-14T07:12:37;11.57;;;6.97;;
56435;SDS011;42335;44.872;20.658;2024-02-14T07:15:04;15.57;;;7.57;;
56435;SDS011;42335;44.872;20.658;2024-02-14T07:17:30;19.80;;;7.10;;
56435;SDS011;42335;44.872;20.658;2024-02-14T07:19:57;28.30;;;9.20;;
56435;SDS011;42335;44.872;20.658;2024-02-14T07:22:22;16.58;;;9.82;;
56435;SDS011;42335;44.872;20.658;2024-02-14T07:24:48;23.75;;;7.30;;
56435;SDS011;42335;44.872;20.658;2024-02-14T07:27:14;14.35;;;8.10;;
56435;SDS011;42335;44.872;20.658;2024-02-14T07:29:41;11.30;;;6.88;;
56435;SDS011;42335;44.872;20.658;2024-02-14T07:32:07;13.60;;;7.78;;
56435;SDS011;42335;44.872;20.658;2024-02-14T07:34:33;15.82;;;9.93;;
56435;SDS011;42335;44.872;20.658;2024-02-14T07:36:59;19.63;;;9.73;;
56435;SDS011;42335;44.872;20.658;2024-02-14T07:39:24;24.40;;;10.88;;
56435;SDS011;42335;44.872;20.658;2024-02-14T07:41:50;26.20;;;10.45;;
56435;SDS011;42335;44.872;20.658;2024-02-14T07:44:17;26.48;;;16.02;;
56435;SDS011;42335;44.872;20.658;2024-02-14T07:46:43;21.92;;;8.68;;
56435;SDS011;42335;44.872;20.658;2024-02-14T07:49:08;10.68;;;6.80;;
56435;SDS011;42335;44.872;20.658;2024-02-14T07:51:35;12.60;;;6.90;;
56435;SDS011;42335;44.872;20.658;2024-02-14T07:54:05;9.98;;;6.10;;
56435;SDS011;42335;44.872;20.658;2024-02-14T07:56:32;10.85;;;6.13;;
56435;SDS011;42335;44.872;20.658;2024-02-14T07:58:58;14.85;;;7.47;;
56435;SDS011;42335;44.872;20.658;2024-02-14T08:01:24;10.38;;;6.50;;
56435;SDS011;42335;44.872;20.658;2024-02-14T08:03:50;14.98;;;7.88;;
56435;SDS011;42335;44.872;20.658;2024-02-14T08:06:16;12.75;;;7.15;;
56435;SDS011;42335;44.872;20.658;2024-02-14T08:08:42;13.55;;;6.78;;
56435;SDS011;42335;44.872;20.658;2024-02-14T08:11:11;18.25;;;8.88;;
56435;SDS011;42335;44.872;20.658;2024-02-14T08:13:36;14.13;;;9.43;;
56435;SDS011;42335;44.872;20.658;2024-02-14T08:16:05;14.43;;;8.20;;
56435;SDS011;42335;44.872;20.658;2024-02-14T08:18:31;11.88;;;7.15;;
56435;SDS011;42335;44.872;20.658;2024-02-14T08:20:57;9.63;;;6.40;;
56435;SDS011;42335;44.872;20.658;2024-02-14T08:23:23;16.10;;;12.73;;
56435;SDS011;42335;44.872;20.658;2024-02-14T08:25:49;13.48;;;8.57;;
56435;SDS011;42335;44.872;20.658;2024-02-14T08:28:15;8.45;;;5.38;;
56435;SDS011;42335;44.872;20.658;2024-02-14T08:30:43;39.35;;;30.13;;
56435;SDS011;42335;44.872;20.658;2024-02-14T08:33:09;21.77;;;15.15;;
56435;SDS011;42335;44.872;20.658;2024-02-14T08:35:35;17.17;;;11.23;;
56435;SDS011;42335;44.872;20.658;2024-02-14T08:38:03;14.27;;;5.68;;
56435;SDS011;42335;44.872;20.658;2024-02-14T08:40:28;10.07;;;6.45;;
56435;SDS011;42335;44.872;20.658;2024-02-14T08:42:54;9.68;;;6.78;;
56435;SDS011;42335;44.872;20.658;2024-02-14T08:45:20;14.23;;;6.68;;
56435;SDS011;42335;44.872;20.658;2024-02-14T08:47:46;11.20;;;7.95;;
56435;SDS011;42335;44.872;20.658;2024-02-14T08:50:11;14.60;;;8.32;;
56435;SDS011;42335;44.872;20.658;2024-02-14T08:52:37;14.70;;;6.63;;
56435;SDS011;42335;44.872;20.658;2024-02-14T08:55:03;9.05;;;7.47;;
56435;SDS011;42335;44.872;20.658;2024-02-14T08:57:31;8.38;;;5.50;;
56435;SDS011;42335;44.872;20.658;2024-02-14T08:59:57;9.02;;;5.45;;
56435;SDS011;42335;44.872;20.658;2024-02-14T09:02:23;11.07;;;6.38;;
56435;SDS011;42335;44.872;20.658;2024-02-14T09:04:50;9.30;;;6.38;;
56435;SDS011;42335;44.872;20.658;2024-02-14T09:07:16;10.07;;;5.85;;
56435;SDS011;42335;44.872;20.658;2024-02-14T09:09:42;14.20;;;6.22;;
56435;SDS011;42335;44.872;20.658;2024-02-14T09:12:07;7.78;;;5.50;;
56435;SDS011;42335;44.872;20.658;2024-02-14T09:14:33;9.45;;;5.95;;
56435;SDS011;42335;44.872;20.658;2024-02-14T09:16:59;11.73;;;6.28;;
56435;SDS011;42335;44.872;20.658;2024-02-14T09:19:24;13.75;;;7.40;;
56435;SDS011;42335;44.872;20.658;2024-02-14T09:21:52;8.50;;;5.90;;
56435;SDS011;42335;44.872;20.658;2024-02-14T09:24:18;9.57;;;5.63;;
56435;SDS011;42335;44.872;20.658;2024-02-14T09:26:43;12.75;;;6.50;;
56435;SDS011;42335;44.872;20.658;2024-02-14T09:29:09;8.55;;;6.13;;
56435;SDS011;42335;44.872;20.658;2024-02-14T09:31:37;13.00;;;7.97;;
56435;SDS011;42335;44.872;20.658;2024-02-14T09:34:03;12.18;;;7.10;;
56435;SDS011;42335;44.872;20.658;2024-02-14T09:36:29;9.57;;;6.22;;
56435;SDS011;42335;44.872;20.658;2024-02-14T09:38:55;7.07;;;5.43;;
56435;SDS011;42335;44.872;20.658;2024-02-14T09:43:52;9.48;;;4.93;;
56435;SDS011;42335;44.872;20.658;2024-02-14T09:46:18;9.20;;;4.47;;
56435;SDS011;42335;44.872;20.658;2024-02-14T09:48:44;8.88;;;4.72;;
56435;SDS011;42335;44.872;20.658;2024-02-14T09:51:11;10.80;;;5.47;;
56435;SDS011;42335;44.872;20.658;2024-02-14T09:53:38;8.50;;;5.28;;
56435;SDS011;42335;44.872;20.658;2024-02-14T09:56:05;7.68;;;4.72;;
56435;SDS011;42335;44.872;20.658;2024-02-14T09:58:31;8.73;;;5.25;;
56435;SDS011;42335;44.872;20.658;2024-02-14T10:01:00;9.45;;;5.40;;
56435;SDS011;42335;44.872;20.658;2024-02-14T10:03:26;10.50;;;5.15;;
56435;SDS011;42335;44.872;20.658;2024-02-14T10:05:52;8.68;;;5.18;;
56435;SDS011;42335;44.872;20.658;2024-02-14T10:08:18;14.32;;;5.40;;
56435;SDS011;42335;44.872;20.658;2024-02-14T10:10:47;10.88;;;5.00;;
56435;SDS011;42335;44.872;20.658;2024-02-14T10:13:12;8.80;;;5.50;;
56435;SDS011;42335;44.872;20.658;2024-02-14T10:15:38;10.50;;;5.45;;
56435;SDS011;42335;44.872;20.658;2024-02-14T10:18:04;9.98;;;4.97;;
56435;SDS011;42335;44.872;20.658;2024-02-14T10:20:30;9.40;;;5.28;;
56435;SDS011;42335;44.872;20.658;2024-02-14T10:23:02;6.75;;;4.97;;
56435;SDS011;42335;44.872;20.658;2024-02-14T10:25:28;7.88;;;5.50;;
56435;SDS011;42335;44.872;20.658;2024-02-14T10:27:54;9.80;;;6.85;;
56435;SDS011;42335;44.872;20.658;2024-02-14T10:30:20;14.00;;;8.77;;
56435;SDS011;42335;44.872;20.658;2024-02-14T10:32:46;12.68;;;7.68;;
56435;SDS011;42335;44.872;20.658;2024-02-14T10:35:13;12.32;;;6.60;;
56435;SDS011;42335;44.872;20.658;2024-02-14T10:37:41;9.60;;;5.47;;
56435;SDS011;42335;44.872;20.658;2024-02-14T10:40:07;19.88;;;5.30;;
56435;SDS011;42335;44.872;20.658;2024-02-14T10:42:34;9.20;;;5.28;;
56435;SDS011;42335;44.872;20.658;2024-02-14T10:45:01;7.97;;;5.03;;
56435;SDS011;42335;44.872;20.658;2024-02-14T10:47:31;10.23;;;5.88;;
56435;SDS011;42335;44.872;20.658;2024-02-14T10:50:03;10.23;;;5.78;;
56435;SDS011;42335;44.872;20.658;2024-02-14T10:52:34;8.15;;;4.82;;
56435;SDS011;42335;44.872;20.658;2024-02-14T10:55:05;10.32;;;4.40;;
56435;SDS011;42335;44.872;20.658;2024-02-14T10:57:32;8.00;;;4.35;;
56435;SDS011;42335;44.872;20.658;2024-02-14T11:00:01;8.15;;;4.63;;
56435;SDS011;42335;44.872;20.658;2024-02-14T11:02:32;8.63;;;5.60;;
56435;SDS011;42335;44.872;20.658;2024-02-14T11:04:59;9.32;;;6.20;;
56435;SDS011;42335;44.872;20.658;2024-02-14T11:07:27;8.85;;;5.30;;
56435;SDS011;42335;44.872;20.658;2024-02-14T11:10:00;8.13;;;5.38;;
56435;SDS011;42335;44.872;20.658;2024-02-14T11:12:38;9.05;;;5.47;;
56435;SDS011;42335;44.872;20.658;2024-02-14T11:15:09;9.43;;;5.93;;
56435;SDS011;42335;44.872;20.658;2024-02-14T11:17:43;12.02;;;4.90;;
56435;SDS011;42335;44.872;20.658;2024-02-14T11:22:38;7.45;;;5.75;;
56435;SDS011;42335;44.872;20.658;2024-02-14T11:25:07;9.68;;;6.18;;
56435;SDS011;42335;44.872;20.658;2024-02-14T11:27:46;7.93;;;5.88;;
56435;SDS011;42335;44.872;20.658;2024-02-14T11:30:12;10.27;;;6.67;;
56435;SDS011;42335;44.872;20.658;2024-02-14T11:32:40;239.48;;;213.98;;
56435;SDS011;42335;44.872;20.658;2024-02-14T11:35:10;10.02;;;6.40;;
56435;SDS011;42335;44.872;20.658;2024-02-14T11:37:38;11.30;;;7.00;;
56435;SDS011;42335;44.872;20.658;2024-02-14T11:40:03;24.00;;;18.70;;
56435;SDS011;42335;44.872;20.658;2024-02-14T11:42:32;37.03;;;30.38;;
56435;SDS011;42335;44.872;20.658;2024-02-14T11:44:58;9.30;;;5.18;;
56435;SDS011;42335;44.872;20.658;2024-02-14T11:47:24;6.80;;;4.78;;
56435;SDS011;42335;44.872;20.658;2024-02-14T11:49:50;15.65;;;12.00;;
56435;SDS011;42335;44.872;20.658;2024-02-14T11:52:17;47.10;;;35.55;;
56435;SDS011;42335;44.872;20.658;2024-02-14T11:54:47;24.60;;;19.33;;
56435;SDS011;42335;44.872;20.658;2024-02-14T11:57:18;11.10;;;5.47;;
56435;SDS011;42335;44.872;20.658;2024-02-14T11:59:44;8.63;;;5.68;;
56435;SDS011;42335;44.872;20.658;2024-02-14T12:02:12;12.82;;;6.07;;
56435;SDS011;42335;44.872;20.658;2024-02-14T12:04:39;8.48;;;5.60;;
56435;SDS011;42335;44.872;20.658;2024-02-14T12:07:05;8.95;;;6.05;;
56435;SDS011;42335;44.872;20.658;2024-02-14T12:09:31;10.23;;;4.68;;
56435;SDS011;42335;44.872;20.658;2024-02-14T12:11:57;8.93;;;4.85;;
56435;SDS011;42335;44.872;20.658;2024-02-14T12:14:23;11.70;;;5.28;;
56435;SDS011;42335;44.872;20.658;2024-02-14T12:16:56;9.13;;;5.78;;
56435;SDS011;42335;44.872;20.658;2024-02-14T12:19:25;7.65;;;5.00;;
56435;SDS011;42335;44.872;20.658;2024-02-14T12:21:52;10.63;;;6.18;;
56435;SDS011;42335;44.872;20.658;2024-02-14T12:24:18;10.35;;;4.82;;
56435;SDS011;42335;44.872;20.658;2024-02-14T12:26:43;13.40;;;5.90;;
56435;SDS011;42335;44.872;20.658;2024-02-14T12:29:12;9.55;;;6.07;;
56435;SDS011;42335;44.872;20.658;2024-02-14T12:31:38;9.00;;;5.65;;
56435;SDS011;42335;44.872;20.658;2024-02-14T12:34:04;8.68;;;6.22;;
56435;SDS011;42335;44.872;20.658;2024-02-14T12:36:30;6.43;;;5.55;;
56435;SDS011;42335;44.872;20.658;2024-02-14T12:39:03;10.75;;;6.93;;
56435;SDS011;42335;44.872;20.658;2024-02-14T12:41:29;11.73;;;6.63;;
56435;SDS011;42335;44.872;20.658;2024-02-14T12:43:55;8.00;;;5.97;;
56435;SDS011;42335;44.872;20.658;2024-02-14T12:46:22;12.95;;;7.03;;
56435;SDS011;42335;44.872;20.658;2024-02-14T12:48:48;9.55;;;7.28;;
56435;SDS011;42335;44.872;20.658;2024-02-14T12:51:14;12.90;;;6.72;;
56435;SDS011;42335;44.872;20.658;2024-02-14T12:53:40;11.95;;;7.60;;
56435;SDS011;42335;44.872;20.658;2024-02-14T12:56:06;13.90;;;7.03;;
56435;SDS011;42335;44.872;20.658;2024-02-14T12:58:33;15.95;;;9.32;;
56435;SDS011;42335;44.872;20.658;2024-02-14T13:00:58;17.50;;;12.05;;
56435;SDS011;42335;44.872;20.658;2024-02-14T13:03:25;9.40;;;7.35;;
56435;SDS011;42335;44.872;20.658;2024-02-14T13:05:50;16.15;;;8.45;;
56435;SDS011;42335;44.872;20.658;2024-02-14T13:08:19;11.95;;;7.70;;
56435;SDS011;42335;44.872;20.658;2024-02-14T13:10:45;16.75;;;7.93;;
56435;SDS011;42335;44.872;20.658;2024-02-14T13:13:11;11.88;;;7.40;;
56435;SDS011;42335;44.872;20.658;2024-02-14T13:15:39;14.15;;;7.18;;
56435;SDS011;42335;44.872;20.658;2024-02-14T13:18:05;17.92;;;7.72;;
56435;SDS011;42335;44.872;20.658;2024-02-14T13:20:33;8.52;;;6.50;;
56435;SDS011;42335;44.872;20.658;2024-02-14T13:22:59;11.23;;;7.63;;
56435;SDS011;42335;44.872;20.658;2024-02-14T13:25:24;10.57;;;7.38;;
56435;SDS011;42335;44.872;20.658;2024-02-14T13:27:51;12.60;;;7.25;;
56435;SDS011;42335;44.872;20.658;2024-02-14T13:30:17;15.38;;;8.05;;
56435;SDS011;42335;44.872;20.658;2024-02-14T13:32:43;15.13;;;7.45;;
56435;SDS011;42335;44.872;20.658;2024-02-14T13:35:09;31.15;;;7.65;;
56435;SDS011;42335;44.872;20.658;2024-02-14T13:37:38;16.60;;;8.25;;
56435;SDS011;42335;44.872;20.658;2024-02-14T13:40:04;9.82;;;7.03;;
56435;SDS011;42335;44.872;20.658;2024-02-14T13:42:35;12.48;;;8.13;;
56435;SDS011;42335;44.872;20.658;2024-02-14T13:45:03;12.88;;;8.02;;
56435;SDS011;42335;44.872;20.658;2024-02-14T13:47:30;19.20;;;7.65;;
56435;SDS011;42335;44.872;20.658;2024-02-14T13:49:56;11.07;;;6.97;;
56435;SDS011;42335;44.872;20.658;2024-02-14T13:52:22;11.93;;;7.05;;
56435;SDS011;42335;44.872;20.658;2024-02-14T13:54:48;10.55;;;7.60;;
56435;SDS011;42335;44.872;20.658;2024-02-14T13:57:13;10.40;;;6.75;;
56435;SDS011;42335;44.872;20.658;2024-02-14T13:59:39;11.70;;;6.97;;
56435;SDS011;42335;44.872;20.658;2024-02-14T14:02:05;12.90;;;7.95;;
56435;SDS011;42335;44.872;20.658;2024-02-14T14:04:30;11.27;;;7.28;;
56435;SDS011;42335;44.872;20.658;2024-02-14T14:06:56;10.32;;;6.75;;
56435;SDS011;42335;44.872;20.658;2024-02-14T14:09:25;14.00;;;8.75;;
56435;SDS011;42335;44.872;20.658;2024-02-14T14:11:51;12.68;;;8.13;;
56435;SDS011;42335;44.872;20.658;2024-02-14T14:14:17;13.70;;;7.65;;
56435;SDS011;42335;44.872;20.658;2024-02-14T14:16:44;9.60;;;6.82;;
56435;SDS011;42335;44.872;20.658;2024-02-14T14:19:10;13.90;;;7.93;;
56435;SDS011;42335;44.872;20.658;2024-02-14T14:21:36;18.48;;;10.10;;